Time;durP1;ratioP1;P1;durP2;ratioP2;P2;SDS_P1;SDS_P2;PMS_P1;PMS_P2;Temp;Humidity;BMP_temperature;BMP_pressure;BME280_temperature;BME280_humidity;BME280_pressure;Samples;Min_cycle;Max_cycle;Signal;HPM_P1;HPM_P2
2023/01/15 00:01:28;;;;;;;1.17;0.50;;;11.30;99.90;;;;;;4991199;28;20231;-79
2023/01/15 00:03:55;;;;;;;0.70;0.40;;;11.30;99.90;;;;;;4992548;28;20253;-80
2023/01/15 00:06:22;;;;;;;0.80;0.43;;;11.20;99.90;;;;;;4975621;28;20440;-79
2023/01/15 00:08:49;;;;;;;1.87;0.60;;;11.20;99.90;;;;;;4993131;28;20419;-79
2023/01/15 00:11:14;;;;;;;0.70;0.50;;;11.30;99.90;;;;;;4993493;28;20410;-79
2023/01/15 00:13:41;;;;;;;0.80;0.50;;;11.20;99.90;;;;;;4993257;28;21342;-80
2023/01/15 00:16:15;;;;;;;0.90;0.73;;;11.20;99.90;;;;;;4994583;28;20920;-80
2023/01/15 00:18:41;;;;;;;4.03;0.80;;;11.10;99.90;;;;;;4977610;28;21212;-81
2023/01/15 00:21:11;;;;;;;1.03;0.40;;;11.00;99.90;;;;;;4995399;28;20561;-80
2023/01/15 00:29:15;;;;;;;1.53;0.50;;;11.10;99.90;;;;;;4995541;28;20780;-81
2023/01/15 00:31:41;;;;;;;0.90;0.50;;;11.00;99.90;;;;;;4977850;28;20438;-80
2023/01/15 00:34:06;;;;;;;2.93;0.60;;;11.00;99.90;;;;;;4996112;28;20898;-81
2023/01/15 00:36:33;;;;;;;0.80;0.47;;;11.00;99.90;;;;;;4996080;28;20504;-80
2023/01/15 00:39:02;;;;;;;0.90;0.50;;;11.00;99.90;;;;;;4995785;28;20215;-79
2023/01/15 00:41:28;;;;;;;1.17;0.50;;;11.00;99.90;;;;;;4977846;28;20426;-79
2023/01/15 00:43:54;;;;;;;4.87;0.60;;;11.00;99.90;;;;;;4995368;28;20806;-80
2023/01/15 00:46:20;;;;;;;0.70;0.40;;;10.90;99.90;;;;;;4977951;28;20208;-81
2023/01/15 00:48:45;;;;;;;1.03;0.40;;;10.90;99.90;;;;;;4993049;28;20931;-78
2023/01/15 00:51:11;;;;;;;0.70;0.50;;;10.90;99.90;;;;;;4992871;28;20192;-79
2023/01/15 00:53:36;;;;;;;0.70;0.43;;;10.90;99.90;;;;;;4992655;28;20554;-78
2023/01/15 00:56:02;;;;;;;0.60;0.40;;;10.90;99.90;;;;;;4976388;28;20194;-78
2023/01/15 00:58:28;;;;;;;0.80;0.50;;;10.90;99.90;;;;;;4992165;28;20193;-78
2023/01/15 01:00:54;;;;;;;1.07;0.60;;;11.10;99.90;;;;;;4991642;28;20321;-80
2023/01/15 01:03:20;;;;;;;0.83;0.50;;;10.90;99.90;;;;;;4992769;28;20258;-77
2023/01/15 01:05:46;;;;;;;0.70;0.50;;;11.10;99.90;;;;;;4992392;28;20961;-77
2023/01/15 01:08:12;;;;;;;2.07;0.60;;;10.90;99.90;;;;;;4991682;28;20512;-76
2023/01/15 01:10:38;;;;;;;0.90;0.50;;;10.90;99.90;;;;;;4991914;28;20191;-77
2023/01/15 01:13:04;;;;;;;1.17;0.63;;;10.90;99.90;;;;;;4991508;28;20536;-77
2023/01/15 01:15:32;;;;;;;0.80;0.50;;;10.90;99.90;;;;;;4990006;28;20194;-77
2023/01/15 01:17:58;;;;;;;0.90;0.50;;;10.90;99.90;;;;;;4991486;28;20237;-77
2023/01/15 01:20:25;;;;;;;0.77;0.77;;;10.70;99.90;;;;;;4989776;28;20460;-77
2023/01/15 01:22:51;;;;;;;0.80;0.53;;;10.60;99.90;;;;;;4990871;28;20198;-78
2023/01/15 01:25:17;;;;;;;0.70;0.40;;;10.60;99.90;;;;;;4989611;28;20910;-77
2023/01/15 01:27:44;;;;;;;0.80;0.40;;;10.60;99.90;;;;;;4990619;28;20415;-78
2023/01/15 01:30:10;;;;;;;1.10;0.50;;;10.60;99.90;;;;;;4990736;28;20222;-77
2023/01/15 01:32:36;;;;;;;0.70;0.40;;;10.60;99.90;;;;;;4972813;28;20920;-77
2023/01/15 01:35:08;;;;;;;0.80;0.43;;;10.60;99.90;;;;;;5106312;27;20961;-75
2023/01/15 01:37:34;;;;;;;1.23;0.43;;;10.60;99.90;;;;;;5105040;28;20809;-75
2023/01/15 01:40:00;;;;;;;1.00;0.50;;;10.70;99.90;;;;;;5106033;28;20441;-75
2023/01/15 01:42:25;;;;;;;1.17;0.40;;;10.80;99.90;;;;;;5104590;28;20189;-75
2023/01/15 01:44:51;;;;;;;1.53;0.50;;;10.70;99.90;;;;;;5106090;28;20628;-75
2023/01/15 01:47:23;;;;;;;0.77;0.40;;;10.70;99.90;;;;;;5106010;28;20170;-76
2023/01/15 01:49:56;;;;;;;1.17;0.60;;;10.70;99.90;;;;;;5087655;28;20197;-76
2023/01/15 01:52:30;;;;;;;0.77;0.50;;;10.70;99.90;;;;;;5105950;28;20402;-75
2023/01/15 01:54:56;;;;;;;0.93;0.40;;;10.70;99.90;;;;;;5105954;28;20924;-76
2023/01/15 01:57:23;;;;;;;0.60;0.37;;;10.80;99.90;;;;;;5105691;28;20417;-74
2023/01/15 01:59:49;;;;;;;0.93;0.40;;;10.80;99.90;;;;;;5105718;28;20428;-75
2023/01/15 02:02:19;;;;;;;0.83;0.50;;;10.90;99.90;;;;;;5104397;28;20430;-75
2023/01/15 02:04:45;;;;;;;0.70;0.40;;;10.90;99.90;;;;;;5105875;28;20444;-74
2023/01/15 02:07:10;;;;;;;0.70;0.40;;;10.90;99.90;;;;;;5106089;28;20857;-75
2023/01/15 02:09:36;;;;;;;0.70;0.50;;;11.00;99.90;;;;;;5105694;28;20479;-75
2023/01/15 02:12:16;;;;;;;1.57;0.60;;;11.00;99.90;;;;;;5104347;28;20182;-75
2023/01/15 02:15:06;;;;;;;1.63;0.40;;;11.00;99.90;;;;;;5104339;28;20216;-76
2023/01/15 02:17:41;;;;;;;0.70;0.40;;;11.00;99.90;;;;;;5106523;28;20416;-76
2023/01/15 02:20:32;;;;;;;0.70;0.40;;;11.10;99.90;;;;;;5104404;28;20558;-75
2023/01/15 02:23:38;;;;;;;0.70;0.40;;;11.10;99.90;;;;;;5105946;28;20442;-75
2023/01/15 02:26:03;;;;;;;0.60;0.40;;;11.20;99.90;;;;;;5105612;28;20447;-75
2023/01/15 02:28:33;;;;;;;1.33;0.40;;;11.10;99.90;;;;;;5105333;28;20415;-75
2023/01/15 02:31:21;;;;;;;1.63;0.40;;;11.30;99.90;;;;;;5103654;28;20204;-75
2023/01/15 02:33:55;;;;;;;0.97;0.40;;;11.30;99.90;;;;;;5104854;28;20563;-75
2023/01/15 02:36:23;;;;;;;0.70;0.40;;;11.30;99.90;;;;;;5105184;28;20882;-75
2023/01/15 02:38:52;;;;;;;0.80;0.40;;;11.30;99.90;;;;;;5105014;28;20938;-75
2023/01/15 02:41:23;;;;;;;1.37;0.50;;;11.40;99.90;;;;;;5105135;28;20916;-75
2023/01/15 02:43:52;;;;;;;2.20;0.63;;;11.40;99.90;;;;;;5105696;28;20769;-75
2023/01/15 02:46:22;;;;;;;0.80;0.40;;;11.40;99.90;;;;;;5092577;28;20415;-75
2023/01/15 02:48:51;;;;;;;0.70;0.40;;;11.40;99.90;;;;;;5090528;28;20482;-76
2023/01/15 02:51:28;;;;;;;1.07;0.40;;;11.40;99.90;;;;;;5091892;28;20450;-75
2023/01/15 02:53:59;;;;;;;1.87;0.40;;;11.30;99.90;;;;;;5090058;28;20934;-75
2023/01/15 02:56:28;;;;;;;0.67;0.33;;;11.40;99.90;;;;;;5090107;28;20420;-75
2023/01/15 02:58:58;;;;;;;0.60;0.30;;;11.40;99.90;;;;;;5091753;28;20409;-75
2023/01/15 03:01:32;;;;;;;1.27;0.40;;;11.50;99.90;;;;;;5089924;28;20950;-75
2023/01/15 03:04:12;;;;;;;0.90;0.40;;;11.50;99.90;;;;;;5090137;28;20866;-74
2023/01/15 03:06:45;;;;;;;0.67;0.37;;;11.50;99.90;;;;;;5091342;28;20416;-75
2023/01/15 03:09:11;;;;;;;1.10;0.40;;;11.60;99.90;;;;;;5089780;28;20470;-75
2023/01/15 03:11:50;;;;;;;0.90;0.40;;;11.50;99.90;;;;;;5091300;28;20516;-74
2023/01/15 03:14:31;;;;;;;0.97;0.40;;;11.60;99.90;;;;;;5091223;28;20977;-75
2023/01/15 03:17:05;;;;;;;2.40;0.57;;;11.50;99.90;;;;;;5091324;28;20571;-75
2023/01/15 03:19:45;;;;;;;1.00;0.30;;;11.50;99.90;;;;;;5091187;28;20443;-76
2023/01/15 03:22:20;;;;;;;0.70;0.40;;;11.60;99.90;;;;;;5090965;28;20412;-75
2023/01/15 03:25:18;;;;;;;0.60;0.30;;;11.60;99.90;;;;;;5090764;28;20950;-74
2023/01/15 03:27:43;;;;;;;0.70;0.40;;;11.60;99.90;;;;;;5090119;28;20902;-75
2023/01/15 03:30:16;;;;;;;0.60;0.30;;;11.60;99.90;;;;;;5089235;28;20538;-74
2023/01/15 03:32:42;;;;;;;2.30;0.40;;;11.60;99.90;;;;;;5090612;28;20180;-75
2023/01/15 03:35:46;;;;;;;0.60;0.30;;;11.50;99.90;;;;;;5090311;28;20589;-75
2023/01/15 03:38:14;;;;;;;0.70;0.40;;;11.40;99.90;;;;;;5091057;28;20172;-75
2023/01/15 03:40:51;;;;;;;0.80;0.30;;;11.50;99.90;;;;;;5090819;28;20943;-75
2023/01/15 03:46:17;;;;;;;0.70;0.40;;;11.50;99.90;;;;;;5090186;28;20423;-75
2023/01/15 03:49:02;;;;;;;0.60;0.40;;;11.50;99.90;;;;;;5090416;28;20414;-75
2023/01/15 03:51:39;;;;;;;0.60;0.30;;;11.50;99.90;;;;;;5090324;28;20455;-75
2023/01/15 03:54:13;;;;;;;0.67;0.40;;;11.50;99.90;;;;;;5090530;28;20454;-75
2023/01/15 03:57:34;;;;;;;0.60;0.30;;;11.50;99.90;;;;;;5089210;28;21065;-74
2023/01/15 04:00:22;;;;;;;0.80;0.40;;;11.70;99.90;;;;;;5083885;28;21312;-76
2023/01/15 04:02:50;;;;;;;0.67;0.30;;;11.80;99.90;;;;;;5089534;28;20455;-74
2023/01/15 04:05:17;;;;;;;0.70;0.30;;;11.80;99.90;;;;;;5090146;28;20968;-73
2023/01/15 04:07:43;;;;;;;1.00;0.30;;;11.80;99.90;;;;;;5090126;28;20420;-76
2023/01/15 04:10:09;;;;;;;0.60;0.30;;;11.80;99.90;;;;;;5089834;28;20484;-76
2023/01/15 04:12:35;;;;;;;1.10;0.40;;;11.70;99.90;;;;;;5088368;28;20418;-74
2023/01/15 04:15:01;;;;;;;0.87;0.50;;;11.80;99.90;;;;;;5089717;28;20477;-74
2023/01/15 04:17:26;;;;;;;0.60;0.33;;;11.70;99.90;;;;;;5089774;28;20175;-75
2023/01/15 04:19:52;;;;;;;0.60;0.30;;;11.60;99.90;;;;;;5089668;28;20200;-74
2023/01/15 04:22:18;;;;;;;0.60;0.30;;;11.70;99.90;;;;;;5089723;28;20178;-75
2023/01/15 04:24:43;;;;;;;0.60;0.30;;;11.70;99.90;;;;;;5089852;28;20228;-74
2023/01/15 04:27:09;;;;;;;0.70;0.40;;;11.70;99.90;;;;;;5088965;28;20196;-75
2023/01/15 04:29:34;;;;;;;0.60;0.40;;;11.70;99.90;;;;;;5088453;28;20215;-76
2023/01/15 04:32:00;;;;;;;1.43;0.30;;;11.80;99.90;;;;;;5088402;28;20188;-75
2023/01/15 04:34:26;;;;;;;1.23;0.40;;;11.80;99.90;;;;;;5071132;28;20352;-76
2023/01/15 04:36:53;;;;;;;0.70;0.30;;;11.70;99.90;;;;;;5089585;28;20172;-75
2023/01/15 04:39:19;;;;;;;0.60;0.30;;;11.70;99.90;;;;;;5089225;28;20443;-75
2023/01/15 04:44:29;;;;;;;0.60;0.30;;;11.80;99.90;;;;;;5089809;28;20202;-75
2023/01/15 04:46:56;;;;;;;0.70;0.40;;;11.80;99.90;;;;;;5089564;28;20929;-75
2023/01/15 04:49:22;;;;;;;0.60;0.30;;;11.80;99.90;;;;;;5089096;28;20292;-75
2023/01/15 04:51:48;;;;;;;0.60;0.30;;;11.70;99.90;;;;;;5089439;28;20842;-73
2023/01/15 04:54:15;;;;;;;0.80;0.30;;;11.70;99.90;;;;;;5088169;28;20473;-75
2023/01/15 04:56:43;;;;;;;0.60;0.30;;;11.80;99.90;;;;;;5088261;28;20223;-75
2023/01/15 04:59:10;;;;;;;0.90;0.40;;;11.90;99.90;;;;;;5089355;28;20413;-75
2023/01/15 05:01:35;;;;;;;1.63;0.40;;;11.90;99.90;;;;;;5087769;28;20417;-75
2023/01/15 05:04:02;;;;;;;0.60;0.33;;;11.90;99.90;;;;;;5089064;28;20415;-75
2023/01/15 05:06:30;;;;;;;0.60;0.30;;;12.00;99.90;;;;;;5087451;28;20805;-75
2023/01/15 05:08:56;;;;;;;0.60;0.30;;;12.00;99.90;;;;;;5087181;28;21107;-74
2023/01/15 05:11:22;;;;;;;0.70;0.30;;;12.00;99.90;;;;;;5088577;28;20506;-75
2023/01/15 05:13:47;;;;;;;0.60;0.30;;;11.90;99.90;;;;;;5087085;28;20517;-76
2023/01/15 05:16:16;;;;;;;0.60;0.30;;;11.90;99.90;;;;;;5087179;28;20452;-75
2023/01/15 05:18:43;;;;;;;0.90;0.40;;;11.90;99.90;;;;;;5089121;28;20180;-76
2023/01/15 05:21:19;;;;;;;1.63;0.40;;;11.90;99.90;;;;;;5088994;28;20444;-73
2023/01/15 05:23:46;;;;;;;0.60;0.30;;;12.10;99.90;;;;;;5087073;28;20423;-75
2023/01/15 05:26:11;;;;;;;0.60;0.30;;;11.90;99.90;;;;;;5088526;28;20935;-75
2023/01/15 05:28:37;;;;;;;0.70;0.30;;;11.90;99.90;;;;;;5070253;28;20449;-74
2023/01/15 05:31:07;;;;;;;0.63;0.33;;;11.80;99.90;;;;;;5088510;28;20884;-75
2023/01/15 05:33:33;;;;;;;0.70;0.30;;;11.80;99.90;;;;;;5086615;28;20406;-75
2023/01/15 05:36:08;;;;;;;2.97;0.40;;;11.80;99.90;;;;;;5088290;28;20569;-75
2023/01/15 05:38:34;;;;;;;0.70;0.40;;;11.80;99.90;;;;;;5088275;28;20176;-74
2023/01/15 05:41:47;;;;;;;0.60;0.30;;;11.80;99.90;;;;;;5086742;28;20437;-75
2023/01/15 05:43:53;;;;;;;3.13;0.40;;;11.70;99.90;;;;;;5087982;28;20421;-75
2023/01/15 05:46:19;;;;;;;0.60;0.30;;;11.70;99.90;;;;;;5086771;28;20418;-75
2023/01/15 05:48:45;;;;;;;0.60;0.30;;;11.80;99.90;;;;;;5086622;28;20507;-75
2023/01/15 05:51:11;;;;;;;0.70;0.40;;;11.80;99.90;;;;;;5086606;28;20481;-74
2023/01/15 05:53:36;;;;;;;2.23;0.40;;;11.80;99.90;;;;;;5088596;28;20577;-75
2023/01/15 05:56:03;;;;;;;0.60;0.30;;;11.80;99.90;;;;;;5088512;28;20804;-75
2023/01/15 05:58:28;;;;;;;0.70;0.40;;;11.80;99.90;;;;;;5088276;28;20181;-75
2023/01/15 06:00:54;;;;;;;0.70;0.30;;;11.70;99.90;;;;;;5086691;28;20811;-74
2023/01/15 06:03:25;;;;;;;1.03;0.30;;;11.70;99.90;;;;;;5088540;28;20431;-75
2023/01/15 06:05:54;;;;;;;0.60;0.30;;;11.60;99.90;;;;;;5086717;28;20430;-77
2023/01/15 06:08:21;;;;;;;0.67;0.40;;;11.60;99.90;;;;;;5088418;28;20421;-75
2023/01/15 06:10:47;;;;;;;1.23;0.40;;;11.60;99.90;;;;;;5088393;28;20441;-75
2023/01/15 06:13:13;;;;;;;0.60;0.30;;;11.60;99.90;;;;;;5089040;28;20461;-76
2023/01/15 06:15:39;;;;;;;1.27;0.50;;;11.30;99.90;;;;;;5087344;28;20789;-75
2023/01/15 06:18:05;;;;;;;0.60;0.30;;;11.30;99.90;;;;;;5086891;28;20421;-74
2023/01/15 06:20:31;;;;;;;0.67;0.40;;;11.30;99.90;;;;;;5090124;28;20201;-75
2023/01/15 06:22:56;;;;;;;0.60;0.30;;;11.30;99.90;;;;;;5074087;28;20426;-75
2023/01/15 06:25:22;;;;;;;0.70;0.30;;;11.30;99.90;;;;;;5091965;28;20777;-75
2023/01/15 06:27:48;;;;;;;0.60;0.30;;;11.30;99.90;;;;;;5091823;28;20302;-75
2023/01/15 06:30:14;;;;;;;1.33;0.40;;;11.20;99.90;;;;;;5091177;28;20207;-75
2023/01/15 06:32:40;;;;;;;0.60;0.37;;;11.20;99.90;;;;;;5091191;28;20456;-75
2023/01/15 06:35:06;;;;;;;0.60;0.30;;;11.00;99.90;;;;;;5092210;28;20506;-75
2023/01/15 06:37:32;;;;;;;0.60;0.30;;;10.20;99.90;;;;;;5092070;28;20405;-76
2023/01/15 06:39:58;;;;;;;1.20;0.40;;;9.60;99.90;;;;;;5090759;28;20817;-76
2023/01/15 06:47:56;;;;;;;1.43;0.40;;;8.80;99.90;;;;;;5092082;28;20435;-76
2023/01/15 06:50:22;;;;;;;1.07;0.37;;;8.50;99.90;;;;;;5092579;28;20432;-76
2023/01/15 06:52:48;;;;;;;0.60;0.40;;;8.30;99.90;;;;;;5092352;28;20444;-75
2023/01/15 06:55:14;;;;;;;0.70;0.40;;;8.20;99.90;;;;;;5091824;28;20943;-76
2023/01/15 06:57:40;;;;;;;0.70;0.40;;;8.10;99.90;;;;;;5090622;28;20677;-75
2023/01/15 07:00:08;;;;;;;2.17;0.30;;;8.10;99.90;;;;;;5092080;28;20221;-76
2023/01/15 07:02:33;;;;;;;0.97;0.40;;;8.00;99.90;;;;;;5092248;28;20559;-77
2023/01/15 07:04:59;;;;;;;0.80;0.33;;;7.80;99.90;;;;;;5091042;28;20909;-75
2023/01/15 07:07:26;;;;;;;0.70;0.40;;;7.80;99.90;;;;;;5090445;28;20190;-75
2023/01/15 07:09:52;;;;;;;1.17;0.50;;;7.70;99.90;;;;;;5090741;28;20283;-75
2023/01/15 07:12:18;;;;;;;0.60;0.30;;;7.70;99.90;;;;;;5091550;28;20507;-74
2023/01/15 07:14:43;;;;;;;0.60;0.40;;;7.70;99.90;;;;;;5089730;28;20210;-76
2023/01/15 07:17:10;;;;;;;0.70;0.40;;;7.70;99.90;;;;;;5091400;28;20186;-76
2023/01/15 07:19:36;;;;;;;1.93;1.43;;;7.70;99.90;;;;;;5091298;28;20500;-76
2023/01/15 07:22:02;;;;;;;2.17;0.70;;;7.70;99.90;;;;;;5090977;28;20488;-76
2023/01/15 07:24:27;;;;;;;2.77;0.40;;;7.70;99.90;;;;;;5090792;28;20531;-77
2023/01/15 07:26:53;;;;;;;0.90;0.40;;;7.70;99.90;;;;;;5072976;28;20190;-76
2023/01/15 07:29:19;;;;;;;0.83;0.60;;;7.60;99.90;;;;;;5091070;28;20233;-75
2023/01/15 07:31:44;;;;;;;1.13;0.73;;;7.70;99.90;;;;;;5089833;28;20178;-76
2023/01/15 07:34:10;;;;;;;0.80;0.40;;;7.70;99.90;;;;;;5089573;28;20250;-75
2023/01/15 07:36:36;;;;;;;3.03;2.83;;;7.70;99.90;;;;;;5090945;28;20191;-75
2023/01/15 07:39:06;;;;;;;2.13;2.03;;;7.60;99.90;;;;;;5090822;28;20654;-76
2023/01/15 07:49:50;;;;;;;1.10;0.60;;;7.40;99.90;;;;;;5090747;28;20447;-76
2023/01/15 07:52:19;;;;;;;0.67;0.40;;;7.30;99.90;;;;;;5090711;28;20446;-77
2023/01/15 07:54:46;;;;;;;0.80;0.80;;;7.20;99.90;;;;;;5091087;28;20885;-75
2023/01/15 07:57:15;;;;;;;0.70;0.60;;;7.20;99.90;;;;;;5089689;28;20535;-75
2023/01/15 07:59:40;;;;;;;0.70;0.57;;;7.20;99.90;;;;;;5088753;28;20445;-75
2023/01/15 08:02:06;;;;;;;1.10;0.47;;;7.20;99.90;;;;;;5090698;28;20410;-76
2023/01/15 08:04:32;;;;;;;0.70;0.47;;;7.20;99.90;;;;;;5088488;28;20197;-76
2023/01/15 08:06:59;;;;;;;1.10;0.53;;;7.10;99.90;;;;;;5089978;28;20186;-76
2023/01/15 08:09:25;;;;;;;0.60;0.40;;;7.10;99.90;;;;;;5090385;28;20202;-76
2023/01/15 08:17:19;;;;;;;0.70;0.40;;;7.00;99.90;;;;;;5090124;28;20473;-75
2023/01/15 08:19:45;;;;;;;1.23;0.70;;;7.10;99.90;;;;;;5071455;28;20470;-77
2023/01/15 08:22:11;;;;;;;0.60;0.40;;;7.00;99.90;;;;;;5071519;28;20667;-75
2023/01/15 08:24:37;;;;;;;0.73;0.40;;;7.20;99.90;;;;;;5089664;28;20183;-74
2023/01/15 08:27:02;;;;;;;2.90;0.40;;;7.10;99.90;;;;;;5087667;28;20194;-77
2023/01/15 08:29:28;;;;;;;0.77;0.40;;;7.00;99.90;;;;;;5088192;28;20922;-75
2023/01/15 08:31:54;;;;;;;0.60;0.40;;;7.10;99.90;;;;;;5088302;28;20943;-75
2023/01/15 08:34:20;;;;;;;5.43;3.90;;;7.00;99.90;;;;;;5088089;28;20221;-75
2023/01/15 08:36:45;;;;;;;0.70;0.50;;;7.00;99.90;;;;;;5088232;28;20802;-75
2023/01/15 08:39:11;;;;;;;0.70;0.70;;;6.90;99.90;;;;;;5086663;28;20412;-74
2023/01/15 08:41:37;;;;;;;4.50;1.10;;;6.90;99.90;;;;;;5069350;28;20594;-76
2023/01/15 08:44:03;;;;;;;0.90;0.50;;;6.90;99.90;;;;;;5087895;28;20416;-75
2023/01/15 08:46:28;;;;;;;0.70;0.50;;;6.90;99.90;;;;;;5087220;28;20983;-76
2023/01/15 08:48:54;;;;;;;0.67;0.40;;;6.90;99.90;;;;;;5086891;28;20591;-75
2023/01/15 08:51:20;;;;;;;3.77;0.50;;;6.90;99.90;;;;;;5088244;28;20186;-75
2023/01/15 08:53:45;;;;;;;0.60;0.40;;;6.90;99.90;;;;;;5088046;28;20206;-74
2023/01/15 08:56:13;;;;;;;0.63;0.40;;;6.90;99.90;;;;;;5086341;28;20186;-75
2023/01/15 08:58:38;;;;;;;0.60;0.40;;;6.80;99.90;;;;;;5086207;28;20214;-75
2023/01/15 09:01:06;;;;;;;0.60;0.30;;;6.70;99.90;;;;;;5087764;28;20460;-75
2023/01/15 09:03:31;;;;;;;0.60;0.30;;;6.70;99.90;;;;;;5087569;28;20670;-75
2023/01/15 09:05:58;;;;;;;0.70;0.40;;;6.60;99.90;;;;;;5087411;28;20464;-75
2023/01/15 09:08:25;;;;;;;0.60;0.40;;;6.60;99.90;;;;;;5087576;28;20700;-75
2023/01/15 09:10:50;;;;;;;1.10;0.40;;;6.60;99.90;;;;;;5087414;28;20440;-75
2023/01/15 09:13:16;;;;;;;0.70;0.30;;;6.70;99.90;;;;;;5085896;28;20426;-75
2023/01/15 09:15:42;;;;;;;0.60;0.33;;;6.60;99.90;;;;;;5087680;28;20175;-74
2023/01/15 09:18:09;;;;;;;0.60;0.40;;;6.60;99.90;;;;;;5087347;28;20204;-75
2023/01/15 09:20:35;;;;;;;0.60;0.30;;;6.60;99.90;;;;;;5069091;28;20206;-75
2023/01/15 09:23:01;;;;;;;0.70;0.40;;;6.70;99.90;;;;;;5087268;28;20916;-75
2023/01/15 09:25:26;;;;;;;0.60;0.40;;;6.80;99.90;;;;;;5085930;28;20170;-75
2023/01/15 09:27:54;;;;;;;0.70;0.40;;;6.70;99.90;;;;;;5085915;28;20210;-75
2023/01/15 09:30:20;;;;;;;0.60;0.30;;;6.80;99.90;;;;;;5087167;28;20194;-75
2023/01/15 09:32:46;;;;;;;0.70;0.33;;;6.70;99.90;;;;;;5087176;28;21038;-75
2023/01/15 09:35:12;;;;;;;0.60;0.40;;;6.60;99.90;;;;;;5087425;28;20541;-75
2023/01/15 09:37:38;;;;;;;0.70;0.40;;;6.50;99.90;;;;;;5086039;28;20484;-75
2023/01/15 09:40:06;;;;;;;0.60;0.30;;;6.40;99.90;;;;;;5087323;28;20448;-75
2023/01/15 09:42:45;;;;;;;0.60;0.33;;;6.30;99.90;;;;;;5087246;28;20197;-75
2023/01/15 09:45:17;;;;;;;0.93;0.43;;;6.30;99.90;;;;;;5087501;28;20896;-74
2023/01/15 09:47:58;;;;;;;0.60;0.40;;;6.30;99.90;;;;;;5087466;28;20423;-75
2023/01/15 09:50:34;;;;;;;0.60;0.40;;;6.30;99.90;;;;;;5087679;28;20439;-74
2023/01/15 09:53:12;;;;;;;1.10;0.57;;;6.20;99.90;;;;;;5087820;28;20427;-75
2023/01/15 09:55:52;;;;;;;5.57;2.30;;;6.20;99.90;;;;;;5089005;28;20444;-75
2023/01/15 09:58:20;;;;;;;0.70;0.67;;;6.30;99.90;;;;;;5091453;28;20419;-75
2023/01/15 10:00:48;;;;;;;1.10;1.00;;;6.40;99.90;;;;;;5091130;28;20531;-75
2023/01/15 10:03:46;;;;;;;0.80;0.70;;;6.40;99.90;;;;;;5072714;28;20423;-75
2023/01/15 10:06:23;;;;;;;0.90;0.60;;;6.40;99.90;;;;;;5091156;28;20408;-75
2023/01/15 10:08:49;;;;;;;0.70;0.50;;;6.40;99.90;;;;;;5091041;28;20448;-73
2023/01/15 10:11:15;;;;;;;0.80;0.70;;;6.30;99.90;;;;;;5074014;28;20517;-74
2023/01/15 10:13:55;;;;;;;1.90;1.23;;;6.40;99.90;;;;;;5092469;28;21006;-75
2023/01/15 10:16:27;;;;;;;0.77;0.40;;;6.30;99.90;;;;;;5092499;28;20622;-75
2023/01/15 10:18:54;;;;;;;0.60;0.40;;;6.20;99.90;;;;;;5073823;28;20450;-76
2023/01/15 10:21:20;;;;;;;0.70;0.40;;;6.10;99.90;;;;;;5092685;28;20793;-74
2023/01/15 10:24:04;;;;;;;0.60;0.40;;;6.00;99.90;;;;;;5090890;28;20435;-76
2023/01/15 10:26:39;;;;;;;0.80;0.40;;;6.00;99.90;;;;;;5090853;28;20641;-75
2023/01/15 10:29:16;;;;;;;0.63;0.40;;;6.00;99.90;;;;;;5090364;28;20419;-75
2023/01/15 10:32:03;;;;;;;0.70;0.43;;;6.10;99.90;;;;;;5092220;28;21029;-75
2023/01/15 10:35:02;;;;;;;1.00;0.40;;;6.10;99.90;;;;;;5090219;28;20483;-75
2023/01/15 10:37:44;;;;;;;1.53;0.40;;;6.00;99.90;;;;;;5092401;28;20408;-74
2023/01/15 10:40:40;;;;;;;0.60;0.40;;;6.00;99.90;;;;;;5091586;28;20940;-76
2023/01/15 10:43:30;;;;;;;0.67;0.40;;;6.10;99.90;;;;;;5091733;28;20185;-75
2023/01/15 10:46:06;;;;;;;0.97;0.43;;;6.00;99.90;;;;;;5089859;28;20435;-75
2023/01/15 10:49:02;;;;;;;0.70;0.40;;;6.00;99.90;;;;;;5091333;28;20831;-74
2023/01/15 10:51:40;;;;;;;0.63;0.37;;;5.90;99.90;;;;;;5091285;28;20420;-75
2023/01/15 10:54:34;;;;;;;0.70;0.40;;;5.90;99.90;;;;;;5089672;28;20519;-76
2023/01/15 10:57:16;;;;;;;0.70;0.50;;;5.80;99.90;;;;;;5091085;28;20419;-75
2023/01/15 10:59:57;;;;;;;0.70;0.40;;;5.90;99.90;;;;;;5091354;28;20429;-75
2023/01/15 11:02:58;;;;;;;1.02;0.70;;;5.90;99.90;;;;;;5091367;28;20416;-74
2023/01/15 11:05:24;;;;;;;0.90;0.67;;;5.90;99.90;;;;;;5002058;28;20215;-75
2023/01/15 11:07:52;;;;;;;0.70;0.40;;;5.90;99.90;;;;;;5090626;28;20428;-75
2023/01/15 11:10:20;;;;;;;0.67;0.50;;;5.90;99.90;;;;;;5089381;28;20197;-75
2023/01/15 11:21:52;;;;;;;0.70;0.50;;;5.70;99.90;;;;;;5091128;28;20836;-75
2023/01/15 11:24:18;;;;;;;1.10;0.40;;;5.70;99.90;;;;;;5090915;28;20415;-75
2023/01/15 11:26:50;;;;;;;0.60;0.30;;;5.60;99.90;;;;;;5090725;28;20490;-75
2023/01/15 11:31:51;;;;;;;0.60;0.30;;;5.50;99.90;;;;;;5144128;22;20484;-77
2023/01/15 11:34:20;;;;;;;0.63;0.40;;;5.50;99.90;;;;;;5010507;28;20463;-77
2023/01/15 11:36:46;;;;;;;0.60;0.35;;;5.50;99.90;;;;;;5011482;28;20207;-79
2023/01/15 11:39:22;;;;;;;0.60;0.30;;;5.40;99.90;;;;;;5012134;28;20194;-77
2023/01/15 11:53:01;;;;;;;0.60;0.40;;;5.40;99.90;;;;;;5031276;28;20514;-76
2023/01/15 11:55:28;;;;;;;0.83;0.40;;;5.40;99.90;;;;;;5032182;28;21030;-78
2023/01/15 11:57:55;;;;;;;0.60;0.38;;;5.30;99.90;;;;;;5032355;28;21242;-78
2023/01/15 12:00:24;;;;;;;1.73;0.40;;;5.30;99.90;;;;;;5029556;28;20260;-77
2023/01/15 12:02:53;;;;;;;0.70;0.40;;;5.30;99.90;;;;;;5030954;28;20188;-77
2023/01/15 12:05:27;;;;;;;1.20;0.50;;;5.30;99.90;;;;;;5030917;28;20437;-78
2023/01/15 12:07:56;;;;;;;0.70;0.43;;;5.20;99.90;;;;;;5031000;28;20632;-78
2023/01/15 12:13:23;;;;;;;0.70;0.40;;;4.70;99.90;;;;;;5030937;28;20405;-78
2023/01/15 12:16:02;;;;;;;0.70;0.50;;;4.40;99.90;;;;;;5030884;28;20906;-78
2023/01/15 12:18:51;;;;;;;0.70;0.50;;;4.30;99.90;;;;;;5028470;28;20456;-79
2023/01/15 12:21:17;;;;;;;0.70;0.60;;;4.30;99.90;;;;;;5018834;28;20454;-78
2023/01/15 12:24:01;;;;;;;0.80;0.50;;;4.40;99.90;;;;;;5030965;28;20183;-78
2023/01/15 12:26:52;;;;;;;0.82;0.75;;;4.40;99.90;;;;;;5029569;28;20212;-78
2023/01/15 12:29:34;;;;;;;0.60;0.30;;;4.40;99.90;;;;;;5030826;28;20199;-78
2023/01/15 12:32:09;;;;;;;1.38;0.50;;;4.30;99.90;;;;;;5031044;28;20228;-78
2023/01/15 12:34:51;;;;;;;1.75;1.65;;;4.40;99.90;;;;;;5030883;28;20276;-78
2023/01/15 12:37:26;;;;;;;0.70;0.40;;;4.40;99.90;;;;;;5029514;28;20186;-78
2023/01/15 12:40:26;;;;;;;1.55;0.75;;;4.40;99.90;;;;;;5030646;28;20593;-78
2023/01/15 12:45:43;;;;;;;0.95;0.45;;;4.40;99.90;;;;;;5030197;28;20242;-77
2023/01/15 12:48:26;;;;;;;1.00;0.40;;;4.50;99.90;;;;;;5028511;28;20215;-77
2023/01/15 12:50:56;;;;;;;0.67;0.40;;;4.50;99.90;;;;;;5029439;28;21297;-77
2023/01/15 12:53:51;;;;;;;0.70;0.40;;;4.40;99.90;;;;;;5030622;28;20403;-78
2023/01/15 12:56:26;;;;;;;2.17;1.03;;;4.40;99.90;;;;;;5011398;28;20608;-77
2023/01/15 12:59:16;;;;;;;0.70;0.40;;;4.40;99.90;;;;;;5028455;28;20814;-77
2023/01/15 13:01:57;;;;;;;1.70;0.40;;;4.40;99.90;;;;;;5029795;28;20201;-77
2023/01/15 13:04:48;;;;;;;0.80;0.50;;;4.30;99.90;;;;;;5029589;28;20194;-77
2023/01/15 13:07:30;;;;;;;1.98;0.40;;;4.30;99.90;;;;;;5029448;28;20188;-77
2023/01/15 13:10:09;;;;;;;0.90;0.40;;;4.40;99.90;;;;;;5029611;28;20538;-77
2023/01/15 13:12:35;;;;;;;0.77;0.60;;;4.40;99.90;;;;;;5029053;28;20209;-77
2023/01/15 13:15:02;;;;;;;0.70;0.60;;;4.30;99.90;;;;;;5027830;28;20632;-78
2023/01/15 13:17:37;;;;;;;0.70;0.40;;;4.30;99.90;;;;;;5027799;28;20252;-79
2023/01/15 13:20:51;;;;;;;0.80;0.57;;;4.40;99.90;;;;;;5027675;28;20207;-78
2023/01/15 13:23:25;;;;;;;0.75;0.40;;;4.40;99.90;;;;;;5016257;28;20977;-77
2023/01/15 13:26:13;;;;;;;0.60;0.40;;;4.50;99.90;;;;;;5029133;28;20701;-78
2023/01/15 13:29:03;;;;;;;0.73;0.43;;;4.60;99.90;;;;;;5029392;28;20562;-78
2023/01/15 13:31:58;;;;;;;1.20;0.70;;;4.50;99.90;;;;;;5029059;28;20207;-77
2023/01/15 13:34:55;;;;;;;0.70;0.50;;;4.60;99.90;;;;;;5029165;28;20217;-77
2023/01/15 13:37:26;;;;;;;1.08;0.65;;;4.50;99.90;;;;;;5029230;28;20177;-78
2023/01/15 13:40:00;;;;;;;0.80;0.70;;;4.50;99.90;;;;;;5028054;28;20190;-77
2023/01/15 13:42:34;;;;;;;1.25;0.80;;;4.60;99.90;;;;;;5029426;28;20170;-78
2023/01/15 13:45:05;;;;;;;0.80;0.65;;;4.60;99.90;;;;;;5029226;28;20254;-78
2023/01/15 13:47:35;;;;;;;3.00;2.20;;;4.60;99.90;;;;;;5028982;28;20183;-76
2023/01/15 13:50:11;;;;;;;4.90;2.25;;;4.60;99.90;;;;;;5029297;28;20200;-77
2023/01/15 13:52:37;;;;;;;3.77;2.30;;;4.60;99.90;;;;;;5029352;28;20171;-78
2023/01/15 13:55:10;;;;;;;1.48;0.90;;;4.60;99.90;;;;;;5029141;28;20471;-77
2023/01/15 13:57:39;;;;;;;0.95;0.85;;;4.70;99.90;;;;;;5028115;28;20211;-78
2023/01/15 14:00:28;;;;;;;1.88;0.50;;;4.70;99.90;;;;;;5027880;28;20243;-78
2023/01/15 14:02:56;;;;;;;1.60;0.95;;;4.70;99.90;;;;;;5029627;28;20175;-78
2023/01/15 14:05:22;;;;;;;2.05;0.63;;;4.80;99.90;;;;;;5029350;28;20254;-78
2023/01/15 14:07:48;;;;;;;2.67;0.57;;;4.70;99.90;;;;;;5029848;28;20179;-77
2023/01/15 14:10:17;;;;;;;1.67;0.90;;;4.60;99.90;;;;;;5032630;28;20317;-78
2023/01/15 14:12:57;;;;;;;2.07;0.60;;;4.60;99.90;;;;;;5029845;28;20951;-79